createdAt,value
2023-05-12T00:02:34.058Z,11.55
2023-05-12T00:06:35.865Z,17.48
2023-05-12T00:10:37.387Z,12.52
2023-05-12T00:14:38.957Z,10.93
2023-05-12T00:18:41.879Z,12.23
2023-05-12T00:22:43.449Z,11.95
2023-05-12T00:26:45.013Z,12.00
2023-05-12T00:30:46.550Z,9.88
2023-05-12T00:34:49.476Z,16.98
2023-05-12T00:38:50.980Z,17.35
2023-05-12T00:42:52.569Z,15.30
2023-05-12T00:46:54.255Z,12.60
2023-05-12T00:50:58.240Z,11.45
2023-05-12T00:55:00.849Z,10.95
2023-05-12T00:59:02.377Z,10.80
2023-05-12T01:03:04.464Z,11.73
2023-05-12T01:07:12.681Z,12.25
2023-05-12T01:11:14.206Z,12.88
2023-05-12T01:15:15.916Z,13.85
2023-05-12T01:19:32.065Z,15.57
2023-05-12T01:23:39.837Z,14.18
2023-05-12T01:27:43.593Z,13.65
2023-05-12T01:31:45.884Z,18.38
2023-05-12T01:35:47.468Z,13.77
2023-05-12T01:39:49.040Z,13.85
2023-05-12T01:43:51.918Z,16.13
2023-05-12T01:47:53.495Z,15.50
2023-05-12T01:51:55.061Z,16.75
2023-05-12T01:55:56.571Z,15.27
2023-05-12T01:59:59.440Z,15.05
2023-05-12T02:04:01.061Z,15.20
2023-05-12T02:08:02.630Z,16.15
2023-05-12T02:12:04.819Z,17.77
2023-05-12T02:16:07.923Z,17.50
2023-05-12T02:24:12.886Z,15.63
2023-05-12T02:28:15.712Z,15.40
2023-05-12T02:32:18.608Z,18.05
2023-05-12T02:36:20.125Z,17.70
2023-05-12T02:40:21.828Z,17.60
2023-05-12T02:44:23.544Z,16.67
2023-05-12T02:48:26.420Z,20.60
2023-05-12T02:52:28.103Z,16.85
2023-05-12T02:56:30.461Z,19.33
2023-05-12T03:00:33.435Z,20.17
2023-05-12T03:04:36.280Z,16.67
2023-05-12T03:08:37.853Z,20.90
2023-05-12T03:12:39.701Z,15.70
2023-05-12T03:16:41.252Z,15.70
2023-05-12T03:20:44.133Z,15.45
2023-05-12T03:24:45.632Z,18.80
2023-05-12T03:28:47.130Z,20.33
2023-05-12T03:32:48.704Z,19.30
2023-05-12T03:36:51.602Z,19.90
2023-05-12T03:41:03.400Z,15.55
2023-05-12T03:45:05.737Z,15.32
2023-05-12T03:49:07.529Z,16.93
2023-05-12T03:53:10.433Z,13.48
2023-05-12T03:57:12.549Z,16.75
2023-05-12T04:01:14.091Z,15.43
2023-05-12T04:05:15.824Z,18.98
2023-05-12T04:09:18.693Z,14.48
2023-05-12T04:13:20.209Z,14.23
2023-05-12T04:17:21.748Z,15.48
2023-05-12T04:21:28.451Z,17.08
2023-05-12T04:25:31.320Z,18.52
2023-05-12T04:29:32.811Z,19.98
2023-05-12T04:33:34.367Z,19.63
2023-05-12T04:37:35.891Z,20.92
2023-05-12T04:41:38.748Z,18.33
2023-05-12T04:45:40.267Z,18.33
2023-05-12T04:49:41.782Z,21.17
2023-05-12T04:53:43.293Z,20.95
2023-05-12T04:57:46.164Z,20.17
2023-05-12T05:01:47.852Z,25.98
2023-05-12T05:05:49.604Z,20.98
2023-05-12T05:09:51.164Z,19.92
2023-05-12T05:13:54.018Z,17.05
2023-05-12T05:17:55.615Z,22.23
2023-05-12T05:21:57.135Z,16.45
2023-05-12T05:25:58.634Z,17.98
2023-05-12T05:30:01.512Z,17.52
2023-05-12T05:34:03.053Z,15.32
2023-05-12T05:38:04.599Z,14.63
2023-05-12T05:42:06.625Z,13.02
2023-05-12T05:46:09.522Z,12.45
2023-05-12T05:50:11.422Z,12.05
2023-05-12T05:54:12.955Z,17.05
2023-05-12T05:58:14.669Z,13.07
2023-05-12T06:02:17.588Z,15.30
2023-05-12T06:06:19.156Z,15.57
2023-05-12T06:10:21.094Z,12.77
2023-05-12T06:14:22.747Z,16.35
2023-05-12T06:18:25.677Z,14.02
2023-05-12T06:22:27.270Z,10.25
2023-05-12T06:26:28.783Z,25.05
2023-05-12T06:30:30.287Z,15.93
2023-05-12T06:34:33.282Z,9.88
2023-05-12T06:38:34.821Z,12.68
2023-05-12T06:42:36.350Z,16.90
2023-05-12T06:46:37.936Z,11.15
2023-05-12T06:50:41.048Z,11.88
2023-05-12T06:58:44.655Z,14.75
2023-05-12T07:02:46.679Z,10.07
2023-05-12T07:06:50.232Z,11.73
2023-05-12T07:10:51.836Z,9.55
2023-05-12T07:14:53.373Z,9.95
2023-05-12T07:18:55.101Z,8.43
2023-05-12T07:22:58.170Z,9.48
2023-05-12T07:26:59.737Z,24.20
2023-05-12T07:31:01.487Z,8.77
2023-05-12T07:35:03.311Z,10.93
2023-05-12T07:39:06.267Z,10.45
2023-05-12T07:43:07.790Z,15.07
2023-05-12T07:47:09.329Z,20.88
2023-05-12T07:51:11.189Z,10.07
2023-05-12T07:55:14.098Z,9.13
2023-05-12T07:59:15.632Z,10.88
2023-05-12T08:03:17.248Z,9.43
2023-05-12T08:07:18.840Z,11.30
2023-05-12T08:11:21.733Z,12.02
2023-05-12T08:15:23.549Z,10.02
2023-05-12T08:19:25.066Z,8.10
2023-05-12T08:23:26.617Z,10.73
2023-05-12T08:27:29.506Z,8.93
2023-05-12T08:31:31.653Z,13.18
2023-05-12T08:35:33.207Z,11.43
2023-05-12T08:39:35.036Z,9.82
2023-05-12T08:43:43.841Z,9.82
2023-05-12T08:47:45.967Z,11.35
2023-05-12T08:51:57.276Z,8.10
2023-05-12T08:57:09.939Z,11.10
2023-05-12T09:00:28.406Z,11.95
2023-05-12T09:04:30.095Z,10.20
2023-05-12T09:08:32.595Z,11.15
2023-05-12T09:12:36.879Z,10.98
2023-05-12T09:16:43.428Z,16.20
2023-05-12T09:20:45.042Z,10.52
2023-05-12T09:24:46.546Z,9.40
2023-05-12T09:28:48.408Z,11.98
2023-05-12T09:32:51.333Z,10.18
2023-05-12T09:36:55.611Z,12.68
2023-05-12T09:40:57.118Z,14.55
2023-05-12T09:44:59.956Z,11.48
2023-05-12T09:49:02.967Z,10.70
2023-05-12T09:53:06.189Z,11.95
2023-05-12T09:57:11.136Z,16.17
2023-05-12T10:01:22.893Z,13.85
2023-05-12T10:05:28.207Z,12.03
2023-05-12T10:09:32.646Z,10.30
2023-05-12T10:13:34.316Z,11.95
2023-05-12T10:17:36.715Z,13.25
2023-05-12T10:21:40.593Z,11.53
2023-05-12T10:25:42.198Z,7.88
2023-05-12T10:29:44.583Z,9.20
2023-05-12T10:33:56.428Z,11.90
2023-05-12T10:38:05.495Z,11.15
2023-05-12T10:42:07.935Z,10.18
2023-05-12T10:46:11.015Z,8.57
2023-05-12T10:50:13.058Z,9.10
2023-05-12T10:54:21.065Z,16.60
2023-05-12T10:58:22.868Z,9.35
2023-05-12T11:02:27.483Z,8.82
2023-05-12T11:06:30.448Z,8.02
2023-05-12T11:10:34.113Z,9.18
2023-05-12T11:14:38.531Z,6.75
2023-05-12T11:22:41.772Z,7.65
2023-05-12T11:26:44.710Z,6.35
2023-05-12T11:30:52.528Z,6.30
2023-05-12T11:34:55.568Z,10.38
2023-05-12T11:38:57.075Z,11.25
2023-05-12T11:43:09.587Z,6.43
2023-05-12T11:47:13.452Z,7.97
2023-05-12T11:51:14.949Z,8.10
2023-05-12T11:55:21.199Z,5.97
2023-05-12T11:59:28.446Z,6.82
2023-05-12T12:03:30.058Z,5.43
2023-05-12T12:07:32.735Z,6.68
2023-05-12T12:11:34.242Z,8.85
2023-05-12T12:15:37.223Z,5.95
2023-05-12T12:19:38.761Z,7.35
2023-05-12T12:23:50.460Z,8.68
2023-05-12T12:27:53.056Z,12.38
2023-05-12T12:31:55.934Z,7.20
2023-05-12T12:35:57.418Z,8.55
2023-05-12T12:39:58.959Z,5.70
2023-05-12T12:44:00.432Z,8.57
2023-05-12T12:48:03.561Z,10.27
2023-05-12T12:56:07.403Z,5.07
2023-05-12T13:00:09.905Z,5.57
2023-05-12T13:04:12.745Z,5.53
2023-05-12T13:08:14.232Z,7.95
2023-05-12T13:12:15.751Z,5.43
2023-05-12T13:16:17.402Z,4.82
2023-05-12T13:20:20.507Z,6.72
2023-05-12T13:28:23.464Z,5.28
2023-05-12T13:32:25.056Z,5.72
2023-05-12T13:36:28.091Z,5.22
2023-05-12T13:40:29.932Z,6.75
2023-05-12T13:44:31.495Z,7.35
2023-05-12T13:48:33.037Z,7.07
2023-05-12T13:52:35.883Z,7.43
2023-05-12T13:56:37.402Z,5.65
2023-05-12T14:00:38.929Z,6.90
2023-05-12T14:04:40.487Z,10.02
2023-05-12T14:08:43.359Z,7.75
2023-05-12T14:12:44.852Z,8.40
2023-05-12T14:16:46.551Z,8.68
2023-05-12T14:20:48.261Z,8.65
2023-05-12T14:24:51.090Z,6.18
2023-05-12T14:28:52.854Z,10.35
2023-05-12T14:32:54.622Z,8.15
2023-05-12T14:36:56.140Z,7.85
2023-05-12T14:40:58.976Z,8.07
2023-05-12T14:45:00.519Z,6.95
2023-05-12T14:49:01.996Z,8.55
2023-05-12T14:53:03.837Z,8.02
2023-05-12T14:57:07.165Z,6.25
2023-05-12T15:01:09.516Z,7.05
2023-05-12T15:05:12.335Z,13.20
2023-05-12T15:09:13.830Z,6.25
2023-05-12T15:13:17.019Z,7.72
2023-05-12T15:21:21.078Z,8.98
2023-05-12T15:25:22.702Z,8.90
2023-05-12T15:29:25.638Z,19.65
2023-05-12T15:33:27.131Z,18.95
2023-05-12T15:37:28.756Z,20.40
2023-05-12T15:41:30.376Z,11.80
2023-05-12T15:45:33.251Z,10.48
2023-05-12T15:49:34.734Z,5.50
2023-05-12T15:53:36.257Z,6.90
2023-05-12T15:57:37.734Z,5.88
2023-05-12T16:01:40.593Z,6.30
2023-05-12T16:05:42.095Z,10.73
2023-05-12T16:09:43.582Z,8.70
2023-05-12T16:13:45.074Z,7.43
2023-05-12T16:17:47.948Z,5.07
2023-05-12T16:21:49.450Z,4.93
2023-05-12T16:25:51.080Z,5.30
2023-05-12T16:29:52.567Z,4.07
2023-05-12T16:33:55.387Z,6.15
2023-05-12T16:37:56.863Z,8.60
2023-05-12T16:41:58.361Z,4.95
2023-05-12T16:46:00.387Z,4.25
2023-05-12T16:50:03.484Z,5.32
2023-05-12T16:54:05.005Z,8.23
2023-05-12T16:58:06.492Z,13.90
2023-05-12T17:02:08.032Z,9.05
2023-05-12T17:06:11.314Z,7.60
2023-05-12T17:10:12.875Z,5.43
2023-05-12T17:14:14.383Z,3.65
2023-05-12T17:18:15.848Z,7.40
2023-05-12T17:22:18.677Z,4.13
2023-05-12T17:26:20.170Z,11.13
2023-05-12T17:30:21.806Z,11.75
2023-05-12T17:34:23.323Z,4.85
2023-05-12T17:38:26.253Z,3.95
2023-05-12T17:42:27.844Z,4.68
2023-05-12T17:46:29.357Z,3.83
2023-05-12T17:50:30.899Z,3.05
2023-05-12T17:54:34.269Z,3.50
2023-05-12T17:58:35.739Z,3.65
2023-05-12T18:02:38.109Z,3.67
2023-05-12T18:06:39.930Z,3.08
2023-05-12T18:10:42.976Z,4.50
2023-05-12T18:14:44.547Z,7.88
2023-05-12T18:18:46.383Z,6.68
2023-05-12T18:22:47.903Z,3.75
2023-05-12T18:26:50.750Z,3.13
2023-05-12T18:30:53.409Z,6.43
2023-05-12T18:34:56.197Z,7.03
2023-05-12T18:38:57.670Z,4.40
2023-05-12T18:43:00.494Z,9.27
2023-05-12T18:47:02.099Z,4.90
2023-05-12T18:51:03.901Z,7.30
2023-05-12T18:55:06.399Z,4.18
2023-05-12T18:59:09.243Z,5.82
2023-05-12T19:03:10.870Z,6.20
2023-05-12T19:07:12.437Z,4.70
2023-05-12T19:11:14.207Z,5.90
2023-05-12T19:15:17.331Z,5.47
2023-05-12T19:23:20.277Z,8.80
2023-05-12T19:27:21.759Z,8.05
2023-05-12T19:31:25.194Z,16.58
2023-05-12T19:35:26.733Z,5.03
2023-05-12T19:39:28.542Z,8.05
2023-05-12T19:43:30.081Z,7.20
2023-05-12T19:47:33.033Z,6.40
2023-05-12T19:51:34.645Z,8.25
2023-05-12T19:55:36.160Z,7.25
2023-05-12T19:59:37.775Z,19.58
2023-05-12T20:03:40.668Z,8.07
2023-05-12T20:07:42.207Z,8.95
2023-05-12T20:11:43.704Z,6.97
2023-05-12T20:15:45.466Z,12.65
2023-05-12T20:19:48.388Z,6.63
2023-05-12T20:23:49.967Z,11.02
2023-05-12T20:27:51.452Z,11.30
2023-05-12T20:31:53.138Z,13.82
2023-05-12T20:35:56.039Z,10.57
2023-05-12T20:39:57.592Z,10.45
2023-05-12T20:43:59.088Z,8.15
2023-05-12T20:48:00.686Z,14.20
2023-05-12T20:52:03.824Z,11.27
2023-05-12T21:00:08.944Z,9.32
2023-05-12T21:04:10.723Z,10.73
2023-05-12T21:08:13.924Z,12.07
2023-05-12T21:16:16.896Z,9.68
2023-05-12T21:20:18.698Z,9.15
2023-05-12T21:24:21.566Z,12.68
2023-05-12T21:28:23.146Z,9.20
2023-05-12T21:32:24.797Z,10.50
2023-05-12T21:36:26.312Z,12.00
2023-05-12T21:40:29.171Z,13.73
2023-05-12T21:44:30.664Z,10.02
2023-05-12T21:48:32.530Z,9.07
2023-05-12T21:52:34.053Z,10.23
2023-05-12T21:56:36.914Z,15.40
2023-05-12T22:00:38.637Z,11.30
2023-05-12T22:04:40.145Z,12.52
2023-05-12T22:08:41.825Z,11.73
2023-05-12T22:12:44.669Z,10.55
2023-05-12T22:16:46.262Z,10.57
2023-05-12T22:20:47.755Z,8.90
2023-05-12T22:24:49.222Z,8.48
2023-05-12T22:28:52.064Z,16.05
2023-05-12T22:32:53.613Z,14.48
2023-05-12T22:36:55.264Z,10.95
2023-05-12T22:40:56.758Z,11.88
2023-05-12T22:44:59.637Z,10.15
2023-05-12T22:49:01.127Z,9.15
2023-05-12T22:53:02.858Z,10.18
2023-05-12T22:57:04.611Z,15.50
2023-05-12T23:01:07.642Z,13.57
2023-05-12T23:05:09.868Z,11.40
2023-05-12T23:09:11.812Z,15.60
2023-05-12T23:13:13.510Z,12.98
2023-05-12T23:17:16.328Z,13.93
2023-05-12T23:21:18.087Z,14.95
2023-05-12T23:25:19.771Z,11.45
2023-05-12T23:29:21.371Z,12.75
2023-05-12T23:33:24.437Z,14.68
2023-05-12T23:37:26.089Z,12.70
2023-05-12T23:41:27.648Z,14.98
2023-05-12T23:45:29.123Z,13.57
2023-05-12T23:49:32.015Z,13.05
2023-05-12T23:53:33.541Z,11.45
2023-05-12T23:57:35.005Z,13.25
